sensor_id;sensor_type;location;lat;lon;timestamp;pressure;altitude;pressure_sealevel;temperature;humidity
29903;BME280;30288;50.514;9.678;2024-03-08T00:00:37;98983.41;;;-0.92;100.00
29903;BME280;30288;50.514;9.678;2024-03-08T00:02:45;98978.47;;;-0.92;100.00
29903;BME280;30288;50.514;9.678;2024-03-08T00:04:53;98980.19;;;-0.88;100.00
29903;BME280;30288;50.514;9.678;2024-03-08T00:06:57;98975.25;;;-0.88;100.00
29903;BME280;30288;50.514;9.678;2024-03-08T00:09:04;98977.19;;;-0.74;100.00
29903;BME280;30288;50.514;9.678;2024-03-08T00:11:10;98967.47;;;-0.65;100.00
29903;BME280;30288;50.514;9.678;2024-03-08T00:13:18;98970.94;;;-0.57;100.00
29903;BME280;30288;50.514;9.678;2024-03-08T00:15:23;98968.31;;;-0.65;100.00
29903;BME280;30288;50.514;9.678;2024-03-08T00:17:30;98965.69;;;-0.72;100.00
29903;BME280;30288;50.514;9.678;2024-03-08T00:19:35;98965.56;;;-0.78;100.00
29903;BME280;30288;50.514;9.678;2024-03-08T00:21:42;98967.78;;;-0.89;100.00
29903;BME280;30288;50.514;9.678;2024-03-08T00:23:47;98961.81;;;-0.99;100.00
29903;BME280;30288;50.514;9.678;2024-03-08T00:25:52;98966.72;;;-1.02;100.00
29903;BME280;30288;50.514;9.678;2024-03-08T00:27:58;98960.09;;;-1.03;100.00
29903;BME280;30288;50.514;9.678;2024-03-08T00:30:07;98964.91;;;-1.09;100.00
29903;BME280;30288;50.514;9.678;2024-03-08T00:32:13;98964.63;;;-1.21;100.00
29903;BME280;30288;50.514;9.678;2024-03-08T00:34:15;98969.38;;;-1.30;100.00
29903;BME280;30288;50.514;9.678;2024-03-08T00:36:20;98966.69;;;-1.39;100.00
29903;BME280;30288;50.514;9.678;2024-03-08T00:38:26;98962.97;;;-1.22;100.00
29903;BME280;30288;50.514;9.678;2024-03-08T00:40:32;98961.38;;;-1.20;100.00
29903;BME280;30288;50.514;9.678;2024-03-08T00:42:37;98955.41;;;-1.28;100.00
29903;BME280;30288;50.514;9.678;2024-03-08T00:44:43;98956.28;;;-1.26;100.00
29903;BME280;30288;50.514;9.678;2024-03-08T00:46:51;98952.94;;;-1.28;100.00
29903;BME280;30288;50.514;9.678;2024-03-08T00:48:59;98956.13;;;-1.32;100.00
29903;BME280;30288;50.514;9.678;2024-03-08T00:51:05;98952.88;;;-1.31;100.00
29903;BME280;30288;50.514;9.678;2024-03-08T00:53:08;98950.94;;;-1.44;100.00
29903;BME280;30288;50.514;9.678;2024-03-08T00:55:14;98945.13;;;-1.46;100.00
29903;BME280;30288;50.514;9.678;2024-03-08T00:57:19;98947.53;;;-1.49;100.00
29903;BME280;30288;50.514;9.678;2024-03-08T00:59:24;98943.16;;;-1.59;100.00
29903;BME280;30288;50.514;9.678;2024-03-08T01:01:30;98943.22;;;-1.56;100.00
29903;BME280;30288;50.514;9.678;2024-03-08T01:03:38;98935.97;;;-1.50;100.00
29903;BME280;30288;50.514;9.678;2024-03-08T01:05:43;98937.44;;;-1.58;100.00
29903;BME280;30288;50.514;9.678;2024-03-08T01:07:48;98941.28;;;-1.69;100.00
29903;BME280;30288;50.514;9.678;2024-03-08T01:09:54;98930.13;;;-1.54;100.00
29903;BME280;30288;50.514;9.678;2024-03-08T01:11:59;98932.34;;;-1.64;100.00
29903;BME280;30288;50.514;9.678;2024-03-08T01:14:05;98926.72;;;-1.59;100.00
29903;BME280;30288;50.514;9.678;2024-03-08T01:16:10;98925.16;;;-1.55;100.00
29903;BME280;30288;50.514;9.678;2024-03-08T01:18:18;98920.75;;;-1.68;100.00
29903;BME280;30288;50.514;9.678;2024-03-08T01:20:25;98910.91;;;-1.65;100.00
29903;BME280;30288;50.514;9.678;2024-03-08T01:22:34;98924.56;;;-1.80;100.00
29903;BME280;30288;50.514;9.678;2024-03-08T01:24:39;98914.69;;;-1.81;100.00
29903;BME280;30288;50.514;9.678;2024-03-08T01:26:45;98912.22;;;-1.81;100.00
29903;BME280;30288;50.514;9.678;2024-03-08T01:28:50;98919.50;;;-1.86;100.00
29903;BME280;30288;50.514;9.678;2024-03-08T01:30:55;98916.66;;;-2.01;100.00
29903;BME280;30288;50.514;9.678;2024-03-08T01:33:01;98904.97;;;-2.08;100.00
29903;BME280;30288;50.514;9.678;2024-03-08T01:35:07;98907.41;;;-2.09;100.00
29903;BME280;30288;50.514;9.678;2024-03-08T01:37:17;98900.13;;;-2.05;100.00
29903;BME280;30288;50.514;9.678;2024-03-08T01:39:22;98895.81;;;-2.12;100.00
29903;BME280;30288;50.514;9.678;2024-03-08T01:41:27;98894.72;;;-2.23;100.00
29903;BME280;30288;50.514;9.678;2024-03-08T01:43:32;98893.50;;;-2.06;100.00
29903;BME280;30288;50.514;9.678;2024-03-08T01:45:38;98893.06;;;-1.90;100.00
29903;BME280;30288;50.514;9.678;2024-03-08T01:47:43;98887.19;;;-1.95;100.00
29903;BME280;30288;50.514;9.678;2024-03-08T01:49:52;98881.34;;;-2.00;100.00
29903;BME280;30288;50.514;9.678;2024-03-08T01:51:58;98883.72;;;-2.03;100.00
29903;BME280;30288;50.514;9.678;2024-03-08T01:54:07;98882.25;;;-1.95;100.00
29903;BME280;30288;50.514;9.678;2024-03-08T01:56:13;98883.06;;;-1.96;100.00
29903;BME280;30288;50.514;9.678;2024-03-08T01:58:19;98878.63;;;-2.09;100.00
29903;BME280;30288;50.514;9.678;2024-03-08T02:00:26;98867.00;;;-2.13;100.00
29903;BME280;30288;50.514;9.678;2024-03-08T02:02:32;98869.47;;;-2.14;100.00
29903;BME280;30288;50.514;9.678;2024-03-08T02:04:39;98869.00;;;-2.00;100.00
29903;BME280;30288;50.514;9.678;2024-03-08T02:06:44;98870.06;;;-1.89;100.00
29903;BME280;30288;50.514;9.678;2024-03-08T02:08:49;98864.28;;;-1.91;100.00
29903;BME280;30288;50.514;9.678;2024-03-08T02:10:56;98859.66;;;-1.76;100.00
29903;BME280;30288;50.514;9.678;2024-03-08T02:13:03;98857.66;;;-1.92;100.00
29903;BME280;30288;50.514;9.678;2024-03-08T02:15:08;98860.94;;;-1.93;100.00
29903;BME280;30288;50.514;9.678;2024-03-08T02:17:14;98853.94;;;-2.09;100.00
29903;BME280;30288;50.514;9.678;2024-03-08T02:19:20;98861.56;;;-2.01;100.00
29903;BME280;30288;50.514;9.678;2024-03-08T02:21:25;98856.78;;;-1.95;100.00
29903;BME280;30288;50.514;9.678;2024-03-08T02:23:32;98853.53;;;-1.93;100.00
29903;BME280;30288;50.514;9.678;2024-03-08T02:25:38;98847.09;;;-1.86;100.00
29903;BME280;30288;50.514;9.678;2024-03-08T02:27:41;98854.41;;;-1.91;100.00
29903;BME280;30288;50.514;9.678;2024-03-08T02:29:46;98855.25;;;-1.89;100.00
29903;BME280;30288;50.514;9.678;2024-03-08T02:31:51;98845.22;;;-1.96;100.00
29903;BME280;30288;50.514;9.678;2024-03-08T02:33:58;98845.63;;;-2.14;100.00
29903;BME280;30288;50.514;9.678;2024-03-08T02:36:04;98846.63;;;-2.06;100.00
29903;BME280;30288;50.514;9.678;2024-03-08T02:38:13;98841.03;;;-1.99;100.00
29903;BME280;30288;50.514;9.678;2024-03-08T02:40:20;98838.13;;;-1.83;100.00
29903;BME280;30288;50.514;9.678;2024-03-08T02:42:27;98836.53;;;-1.81;100.00
29903;BME280;30288;50.514;9.678;2024-03-08T02:44:32;98839.81;;;-1.82;100.00
29903;BME280;30288;50.514;9.678;2024-03-08T02:46:39;98837.25;;;-1.86;100.00
29903;BME280;30288;50.514;9.678;2024-03-08T02:48:47;98831.31;;;-1.93;100.00
29903;BME280;30288;50.514;9.678;2024-03-08T02:50:53;98833.81;;;-1.91;100.00
29903;BME280;30288;50.514;9.678;2024-03-08T02:52:59;98833.81;;;-1.91;100.00
29903;BME280;30288;50.514;9.678;2024-03-08T02:55:08;98830.59;;;-1.89;100.00
29903;BME280;30288;50.514;9.678;2024-03-08T02:57:18;98834.72;;;-1.88;100.00
29903;BME280;30288;50.514;9.678;2024-03-08T02:59:23;98829.59;;;-1.97;100.00
29903;BME280;30288;50.514;9.678;2024-03-08T03:01:29;98826.22;;;-1.99;100.00
29903;BME280;30288;50.514;9.678;2024-03-08T03:03:32;98822.81;;;-2.04;100.00
29903;BME280;30288;50.514;9.678;2024-03-08T03:05:37;98826.66;;;-2.16;100.00
29903;BME280;30288;50.514;9.678;2024-03-08T03:07:49;98819.88;;;-2.25;100.00
29903;BME280;30288;50.514;9.678;2024-03-08T03:09:57;98820.44;;;-2.35;100.00
29903;BME280;30288;50.514;9.678;2024-03-08T03:12:05;98821.94;;;-2.40;100.00
29903;BME280;30288;50.514;9.678;2024-03-08T03:14:13;98825.09;;;-2.47;100.00
29903;BME280;30288;50.514;9.678;2024-03-08T03:16:18;98818.75;;;-2.36;100.00
29903;BME280;30288;50.514;9.678;2024-03-08T03:18:25;98815.34;;;-2.43;100.00
29903;BME280;30288;50.514;9.678;2024-03-08T03:20:32;98814.00;;;-2.30;100.00
29903;BME280;30288;50.514;9.678;2024-03-08T03:22:46;98814.81;;;-2.30;100.00
29903;BME280;30288;50.514;9.678;2024-03-08T03:24:53;98811.56;;;-2.29;100.00
29903;BME280;30288;50.514;9.678;2024-03-08T03:27:00;98814.16;;;-2.24;100.00
29903;BME280;30288;50.514;9.678;2024-03-08T03:29:15;98807.75;;;-2.16;100.00
29903;BME280;30288;50.514;9.678;2024-03-08T03:31:22;98806.91;;;-2.16;100.00
29903;BME280;30288;50.514;9.678;2024-03-08T03:33:27;98812.69;;;-2.16;100.00
29903;BME280;30288;50.514;9.678;2024-03-08T03:35:34;98807.00;;;-2.12;100.00
29903;BME280;30288;50.514;9.678;2024-03-08T03:37:41;98808.53;;;-2.17;100.00
29903;BME280;30288;50.514;9.678;2024-03-08T03:39:53;98807.06;;;-2.09;100.00
29903;BME280;30288;50.514;9.678;2024-03-08T03:41:59;98806.22;;;-2.11;100.00
29903;BME280;30288;50.514;9.678;2024-03-08T03:44:05;98804.59;;;-2.09;100.00
29903;BME280;30288;50.514;9.678;2024-03-08T03:46:14;98804.59;;;-2.09;100.00
29903;BME280;30288;50.514;9.678;2024-03-08T03:48:19;98801.00;;;-2.23;100.00
29903;BME280;30288;50.514;9.678;2024-03-08T03:50:25;98808.44;;;-2.22;100.00
29903;BME280;30288;50.514;9.678;2024-03-08T03:52:32;98800.94;;;-2.26;100.00
29903;BME280;30288;50.514;9.678;2024-03-08T03:54:35;98802.28;;;-2.37;100.00
29903;BME280;30288;50.514;9.678;2024-03-08T03:56:41;98794.09;;;-2.36;100.00
29903;BME280;30288;50.514;9.678;2024-03-08T03:58:47;98790.00;;;-2.36;100.00
29903;BME280;30288;50.514;9.678;2024-03-08T04:00:56;98793.53;;;-2.26;100.00
29903;BME280;30288;50.514;9.678;2024-03-08T04:03:04;98787.88;;;-2.22;100.00
29903;BME280;30288;50.514;9.678;2024-03-08T04:05:11;98792.88;;;-2.19;100.00
29903;BME280;30288;50.514;9.678;2024-03-08T04:07:16;98786.34;;;-2.17;100.00
29903;BME280;30288;50.514;9.678;2024-03-08T04:09:22;98783.97;;;-2.12;100.00
29903;BME280;30288;50.514;9.678;2024-03-08T04:11:27;98784.47;;;-2.27;100.00
29903;BME280;30288;50.514;9.678;2024-03-08T04:13:38;98782.03;;;-2.26;100.00
29903;BME280;30288;50.514;9.678;2024-03-08T04:15:43;98777.72;;;-2.34;100.00
29903;BME280;30288;50.514;9.678;2024-03-08T04:17:50;98773.47;;;-2.40;100.00
29903;BME280;30288;50.514;9.678;2024-03-08T04:19:58;98771.53;;;-2.53;100.00
29903;BME280;30288;50.514;9.678;2024-03-08T04:22:06;98774.16;;;-2.45;100.00
29903;BME280;30288;50.514;9.678;2024-03-08T04:24:12;98778.31;;;-2.44;100.00
29903;BME280;30288;50.514;9.678;2024-03-08T04:26:19;98777.63;;;-2.37;100.00
29903;BME280;30288;50.514;9.678;2024-03-08T04:28:24;98772.78;;;-2.34;100.00
29903;BME280;30288;50.514;9.678;2024-03-08T04:30:29;98762.25;;;-2.27;100.00
29903;BME280;30288;50.514;9.678;2024-03-08T04:32:34;98766.19;;;-2.35;100.00
29903;BME280;30288;50.514;9.678;2024-03-08T04:34:40;98759.53;;;-2.39;100.00
29903;BME280;30288;50.514;9.678;2024-03-08T04:36:50;98757.78;;;-2.43;100.00
29903;BME280;30288;50.514;9.678;2024-03-08T04:38:56;98759.44;;;-2.42;100.00
29903;BME280;30288;50.514;9.678;2024-03-08T04:41:02;98764.34;;;-2.42;100.00
29903;BME280;30288;50.514;9.678;2024-03-08T04:43:08;98757.78;;;-2.43;100.00
29903;BME280;30288;50.514;9.678;2024-03-08T04:45:14;98757.78;;;-2.43;100.00
29903;BME280;30288;50.514;9.678;2024-03-08T04:47:19;98756.84;;;-2.47;100.00
29903;BME280;30288;50.514;9.678;2024-03-08T04:49:25;98758.47;;;-2.49;100.00
29903;BME280;30288;50.514;9.678;2024-03-08T04:51:30;98758.63;;;-2.43;100.00
29903;BME280;30288;50.514;9.678;2024-03-08T04:53:38;98752.84;;;-2.43;100.00
29903;BME280;30288;50.514;9.678;2024-03-08T04:55:44;98753.66;;;-2.44;100.00
29903;BME280;30288;50.514;9.678;2024-03-08T04:57:49;98755.97;;;-2.50;100.00
29903;BME280;30288;50.514;9.678;2024-03-08T04:59:55;98755.91;;;-2.53;100.00
29903;BME280;30288;50.514;9.678;2024-03-08T05:02:01;98754.38;;;-2.48;100.00
29903;BME280;30288;50.514;9.678;2024-03-08T05:04:06;98748.59;;;-2.49;100.00
29903;BME280;30288;50.514;9.678;2024-03-08T05:06:12;98744.78;;;-2.36;100.00
29903;BME280;30288;50.514;9.678;2024-03-08T05:08:18;98742.63;;;-2.23;100.00
29903;BME280;30288;50.514;9.678;2024-03-08T05:10:26;98740.16;;;-2.23;100.00
29903;BME280;30288;50.514;9.678;2024-03-08T05:12:31;98746.66;;;-2.26;100.00
29903;BME280;30288;50.514;9.678;2024-03-08T05:14:36;98739.28;;;-2.26;100.00
29903;BME280;30288;50.514;9.678;2024-03-08T05:16:42;98735.06;;;-2.30;100.00
29903;BME280;30288;50.514;9.678;2024-03-08T05:18:51;98740.69;;;-2.36;100.00
29903;BME280;30288;50.514;9.678;2024-03-08T05:20:59;98735.66;;;-2.40;100.00
29903;BME280;30288;50.514;9.678;2024-03-08T05:23:06;98744.63;;;-2.42;100.00
29903;BME280;30288;50.514;9.678;2024-03-08T05:25:12;98729.25;;;-2.34;100.00
29903;BME280;30288;50.514;9.678;2024-03-08T05:27:20;98736.75;;;-2.29;100.00
29903;BME280;30288;50.514;9.678;2024-03-08T05:29:25;98728.66;;;-2.22;100.00
29903;BME280;30288;50.514;9.678;2024-03-08T05:31:38;98735.97;;;-2.27;100.00
29903;BME280;30288;50.514;9.678;2024-03-08T05:33:48;98730.34;;;-2.21;100.00
29903;BME280;30288;50.514;9.678;2024-03-08T05:35:51;98737.59;;;-2.29;100.00
29903;BME280;30288;50.514;9.678;2024-03-08T05:37:57;98734.94;;;-2.36;100.00
29903;BME280;30288;50.514;9.678;2024-03-08T05:40:04;98734.66;;;-2.48;100.00
29903;BME280;30288;50.514;9.678;2024-03-08T05:42:20;98737.06;;;-2.50;100.00
29903;BME280;30288;50.514;9.678;2024-03-08T05:44:26;98737.84;;;-2.52;100.00
29903;BME280;30288;50.514;9.678;2024-03-08T05:46:33;98734.44;;;-2.56;100.00
29903;BME280;30288;50.514;9.678;2024-03-08T05:48:38;98736.22;;;-2.50;100.00
29903;BME280;30288;50.514;9.678;2024-03-08T05:50:45;98728.06;;;-2.49;100.00
29903;BME280;30288;50.514;9.678;2024-03-08T05:52:50;98734.59;;;-2.50;100.00
29903;BME280;30288;50.514;9.678;2024-03-08T05:54:55;98732.13;;;-2.50;100.00
29903;BME280;30288;50.514;9.678;2024-03-08T05:57:01;98732.97;;;-2.49;100.00
29903;BME280;30288;50.514;9.678;2024-03-08T05:59:09;98732.97;;;-2.49;100.00
29903;BME280;30288;50.514;9.678;2024-03-08T06:01:16;98729.78;;;-2.45;100.00
29903;BME280;30288;50.514;9.678;2024-03-08T06:03:21;98741.09;;;-2.53;100.00
29903;BME280;30288;50.514;9.678;2024-03-08T06:05:27;98729.63;;;-2.51;100.00
29903;BME280;30288;50.514;9.678;2024-03-08T06:07:29;98734.56;;;-2.51;100.00
29903;BME280;30288;50.514;9.678;2024-03-08T06:09:35;98734.78;;;-2.42;100.00
29903;BME280;30288;50.514;9.678;2024-03-08T06:11:40;98734.72;;;-2.45;100.00
29903;BME280;30288;50.514;9.678;2024-03-08T06:13:46;98736.38;;;-2.44;100.00
29903;BME280;30288;50.514;9.678;2024-03-08T06:15:55;98735.59;;;-2.42;100.00
29903;BME280;30288;50.514;9.678;2024-03-08T06:18:00;98733.25;;;-2.37;100.00
29903;BME280;30288;50.514;9.678;2024-03-08T06:20:10;98733.69;;;-2.19;100.00
29903;BME280;30288;50.514;9.678;2024-03-08T06:22:16;98738.63;;;-2.19;100.00
29903;BME280;30288;50.514;9.678;2024-03-08T06:24:22;98736.06;;;-2.22;100.00
29903;BME280;30288;50.514;9.678;2024-03-08T06:26:28;98741.78;;;-2.23;100.00
29903;BME280;30288;50.514;9.678;2024-03-08T06:28:35;98736.94;;;-2.20;100.00
29903;BME280;30288;50.514;9.678;2024-03-08T06:30:41;98733.94;;;-2.07;100.00
29903;BME280;30288;50.514;9.678;2024-03-08T06:32:49;98734.19;;;-1.95;100.00
29903;BME280;30288;50.514;9.678;2024-03-08T06:34:54;98739.22;;;-1.92;100.00
29903;BME280;30288;50.514;9.678;2024-03-08T06:37:00;98750.88;;;-1.85;100.00
29903;BME280;30288;50.514;9.678;2024-03-08T06:39:05;98739.34;;;-1.86;100.00
29903;BME280;30288;50.514;9.678;2024-03-08T06:41:12;98736.75;;;-1.92;100.00
29903;BME280;30288;50.514;9.678;2024-03-08T06:43:17;98749.22;;;-1.86;100.00
29903;BME280;30288;50.514;9.678;2024-03-08T06:45:24;98736.25;;;-1.77;100.00
29903;BME280;30288;50.514;9.678;2024-03-08T06:47:31;98734.78;;;-1.67;100.00
29903;BME280;30288;50.514;9.678;2024-03-08T06:49:39;98734.84;;;-1.64;100.00
29903;BME280;30288;50.514;9.678;2024-03-08T06:51:45;98731.72;;;-1.57;100.00
29903;BME280;30288;50.514;9.678;2024-03-08T06:53:50;98728.47;;;-1.55;100.00
29903;BME280;30288;50.514;9.678;2024-03-08T06:55:56;98729.47;;;-1.45;100.00
29903;BME280;30288;50.514;9.678;2024-03-08T06:58:02;98729.66;;;-1.36;100.00
29903;BME280;30288;50.514;9.678;2024-03-08T07:00:11;98722.53;;;-1.21;100.00
29903;BME280;30288;50.514;9.678;2024-03-08T07:02:21;98726.75;;;-1.15;100.00
29903;BME280;30288;50.514;9.678;2024-03-08T07:04:28;98726.97;;;-1.03;100.00
29903;BME280;30288;50.514;9.678;2024-03-08T07:06:38;98723.81;;;-0.96;100.00
29903;BME280;30288;50.514;9.678;2024-03-08T07:08:43;98723.91;;;-0.89;100.00
29903;BME280;30288;50.514;9.678;2024-03-08T07:10:49;98723.28;;;-0.78;100.00
29903;BME280;30288;50.514;9.678;2024-03-08T07:12:54;98718.47;;;-0.69;100.00
29903;BME280;30288;50.514;9.678;2024-03-08T07:15:00;98723.63;;;-0.57;100.00
29903;BME280;30288;50.514;9.678;2024-03-08T07:17:06;98714.75;;;-0.45;100.00
29903;BME280;30288;50.514;9.678;2024-03-08T07:19:11;98711.59;;;-0.36;100.00
29903;BME280;30288;50.514;9.678;2024-03-08T07:21:17;98706.09;;;-0.17;100.00
29903;BME280;30288;50.514;9.678;2024-03-08T07:23:26;98704.06;;;0.17;100.00
29903;BME280;30288;50.514;9.678;2024-03-08T07:25:43;98694.75;;;0.68;100.00
29903;BME280;30288;50.514;9.678;2024-03-08T07:27:50;98697.59;;;1.05;100.00
29903;BME280;30288;50.514;9.678;2024-03-08T07:29:56;98696.25;;;1.40;100.00
29903;BME280;30288;50.514;9.678;2024-03-08T07:32:06;98698.09;;;1.65;100.00
29903;BME280;30288;50.514;9.678;2024-03-08T07:34:23;98694.13;;;1.93;100.00
29903;BME280;30288;50.514;9.678;2024-03-08T07:36:29;98689.28;;;2.19;100.00
29903;BME280;30288;50.514;9.678;2024-03-08T07:38:37;98691.88;;;2.40;100.00
29903;BME280;30288;50.514;9.678;2024-03-08T07:40:43;98694.44;;;2.63;100.00
29903;BME280;30288;50.514;9.678;2024-03-08T07:42:50;98688.66;;;2.72;100.00
29903;BME280;30288;50.514;9.678;2024-03-08T07:44:56;98678.72;;;2.81;100.00
29903;BME280;30288;50.514;9.678;2024-03-08T07:47:03;98681.25;;;3.00;100.00
29903;BME280;30288;50.514;9.678;2024-03-08T07:49:11;98680.47;;;3.18;100.00
29903;BME280;30288;50.514;9.678;2024-03-08T07:51:20;98678.81;;;3.32;100.00
29903;BME280;30288;50.514;9.678;2024-03-08T07:53:27;98673.81;;;3.41;100.00
29903;BME280;30288;50.514;9.678;2024-03-08T07:55:35;98673.78;;;3.53;100.00
29903;BME280;30288;50.514;9.678;2024-03-08T07:57:42;98667.13;;;3.62;100.00
29903;BME280;30288;50.514;9.678;2024-03-08T07:59:50;98672.09;;;3.71;100.00
29903;BME280;30288;50.514;9.678;2024-03-08T08:01:55;98665.44;;;3.88;100.00
29903;BME280;30288;50.514;9.678;2024-03-08T08:04:02;98665.44;;;3.91;100.00
29903;BME280;30288;50.514;9.678;2024-03-08T08:06:08;98667.06;;;4.07;100.00
29903;BME280;30288;50.514;9.678;2024-03-08T08:08:18;98663.66;;;4.23;100.00
29903;BME280;30288;50.514;9.678;2024-03-08T08:10:24;98659.44;;;4.39;100.00
29903;BME280;30288;50.514;9.678;2024-03-08T08:12:34;98661.91;;;4.44;100.00
29903;BME280;30288;50.514;9.678;2024-03-08T08:14:39;98653.50;;;4.63;100.00
29903;BME280;30288;50.514;9.678;2024-03-08T08:16:45;98649.25;;;4.77;100.00
29903;BME280;30288;50.514;9.678;2024-03-08T08:18:56;98647.59;;;4.79;100.00
29903;BME280;30288;50.514;9.678;2024-03-08T08:21:01;98643.41;;;4.84;100.00
29903;BME280;30288;50.514;9.678;2024-03-08T08:23:09;98640.06;;;4.88;100.00
29903;BME280;30288;50.514;9.678;2024-03-08T08:25:15;98632.59;;;4.82;100.00
29903;BME280;30288;50.514;9.678;2024-03-08T08:27:23;98633.44;;;4.81;100.00
29903;BME280;30288;50.514;9.678;2024-03-08T08:29:32;98627.63;;;4.80;100.00
29903;BME280;30288;50.514;9.678;2024-03-08T08:31:38;98622.56;;;4.90;100.00
29903;BME280;30288;50.514;9.678;2024-03-08T08:33:43;98619.16;;;5.01;100.00
29903;BME280;30288;50.514;9.678;2024-03-08T08:35:51;98609.13;;;5.04;100.00
29903;BME280;30288;50.514;9.678;2024-03-08T08:37:56;98599.94;;;5.12;100.00
29903;BME280;30288;50.514;9.678;2024-03-08T08:40:02;98607.28;;;5.31;100.00
29903;BME280;30288;50.514;9.678;2024-03-08T08:42:12;98606.25;;;5.48;100.00
29903;BME280;30288;50.514;9.678;2024-03-08T08:44:17;98602.88;;;5.54;100.00
29903;BME280;30288;50.514;9.678;2024-03-08T08:46:22;98601.91;;;5.67;100.00
29903;BME280;30288;50.514;9.678;2024-03-08T08:48:28;98603.53;;;5.72;100.00
29903;BME280;30288;50.514;9.678;2024-03-08T08:50:34;98595.19;;;5.70;100.00
29903;BME280;30288;50.514;9.678;2024-03-08T08:52:40;98590.91;;;5.83;100.00
29903;BME280;30288;50.514;9.678;2024-03-08T08:54:46;98595.03;;;5.86;100.00
29903;BME280;30288;50.514;9.678;2024-03-08T08:56:52;98595.84;;;5.92;100.00
29903;BME280;30288;50.514;9.678;2024-03-08T08:58:58;98593.94;;;6.12;100.00
29903;BME280;30288;50.514;9.678;2024-03-08T09:01:03;98590.44;;;6.26;100.00
29903;BME280;30288;50.514;9.678;2024-03-08T09:03:12;98588.59;;;6.37;100.00
29903;BME280;30288;50.514;9.678;2024-03-08T09:05:19;98586.19;;;6.29;100.00
29903;BME280;30288;50.514;9.678;2024-03-08T09:07:24;98581.84;;;6.42;100.00
29903;BME280;30288;50.514;9.678;2024-03-08T09:09:30;98582.47;;;6.57;100.00
29903;BME280;30288;50.514;9.678;2024-03-08T09:11:35;98582.56;;;6.51;100.00
29903;BME280;30288;50.514;9.678;2024-03-08T09:13:44;98584.19;;;6.54;100.00
29903;BME280;30288;50.514;9.678;2024-03-08T09:15:51;98569.13;;;6.57;100.00
29903;BME280;30288;50.514;9.678;2024-03-08T09:17:57;98566.25;;;6.81;100.00
29903;BME280;30288;50.514;9.678;2024-03-08T09:20:06;98549.41;;;6.92;100.00
29903;BME280;30288;50.514;9.678;2024-03-08T09:22:13;98553.28;;;7.10;100.00
29903;BME280;30288;50.514;9.678;2024-03-08T09:24:18;98555.53;;;7.24;100.00
29903;BME280;30288;50.514;9.678;2024-03-08T09:26:24;98539.47;;;7.35;100.00
29903;BME280;30288;50.514;9.678;2024-03-08T09:28:31;98543.22;;;7.59;100.00
29903;BME280;30288;50.514;9.678;2024-03-08T09:30:36;98542.75;;;7.83;100.00
29903;BME280;30288;50.514;9.678;2024-03-08T09:32:47;98534.94;;;7.97;100.00
29903;BME280;30288;50.514;9.678;2024-03-08T09:34:53;98534.16;;;8.35;100.00
29903;BME280;30288;50.514;9.678;2024-03-08T09:37:01;98534.88;;;8.40;100.00
29903;BME280;30288;50.514;9.678;2024-03-08T09:39:07;98529.78;;;8.43;100.00
29903;BME280;30288;50.514;9.678;2024-03-08T09:41:19;98531.75;;;8.66;100.00
29903;BME280;30288;50.514;9.678;2024-03-08T09:43:24;98527.84;;;8.54;100.00
29903;BME280;30288;50.514;9.678;2024-03-08T09:45:32;98527.78;;;8.17;100.00
29903;BME280;30288;50.514;9.678;2024-03-08T09:47:42;98529.34;;;8.23;100.00
29903;BME280;30288;50.514;9.678;2024-03-08T09:49:47;98536.97;;;8.57;100.00
29903;BME280;30288;50.514;9.678;2024-03-08T09:51:53;98519.44;;;8.91;100.00
29903;BME280;30288;50.514;9.678;2024-03-08T09:54:01;98514.41;;;9.23;100.00
29903;BME280;30288;50.514;9.678;2024-03-08T09:56:18;98515.38;;;9.17;100.00
29903;BME280;30288;50.514;9.678;2024-03-08T09:58:24;98514.06;;;8.70;100.00
29903;BME280;30288;50.514;9.678;2024-03-08T10:00:56;98512.22;;;8.42;100.00
29903;BME280;30288;50.514;9.678;2024-03-08T10:03:01;98504.13;;;8.29;100.00
29903;BME280;30288;50.514;9.678;2024-03-08T10:05:09;98509.34;;;7.81;100.00
29903;BME280;30288;50.514;9.678;2024-03-08T10:07:15;98503.81;;;8.06;100.00
29903;BME280;30288;50.514;9.678;2024-03-08T10:09:23;98489.63;;;8.05;100.00
29903;BME280;30288;50.514;9.678;2024-03-08T10:11:27;98483.78;;;8.43;100.00
29903;BME280;30288;50.514;9.678;2024-03-08T10:13:32;98494.63;;;8.43;100.00
29903;BME280;30288;50.514;9.678;2024-03-08T10:15:40;98488.25;;;8.65;100.00
29903;BME280;30288;50.514;9.678;2024-03-08T10:17:45;98487.41;;;8.65;100.00
29903;BME280;30288;50.514;9.678;2024-03-08T10:19:52;98484.16;;;8.61;100.00
29903;BME280;30288;50.514;9.678;2024-03-08T10:21:57;98473.13;;;8.68;100.00
29903;BME280;30288;50.514;9.678;2024-03-08T10:24:03;98464.31;;;8.86;100.00
29903;BME280;30288;50.514;9.678;2024-03-08T10:26:15;98463.69;;;9.10;100.00
29903;BME280;30288;50.514;9.678;2024-03-08T10:28:23;98466.16;;;9.12;100.00
29903;BME280;30288;50.514;9.678;2024-03-08T10:30:30;98462.44;;;9.25;100.00
29903;BME280;30288;50.514;9.678;2024-03-08T10:32:35;98454.56;;;9.37;100.00
29903;BME280;30288;50.514;9.678;2024-03-08T10:34:40;98454.50;;;9.40;100.00
29903;BME280;30288;50.514;9.678;2024-03-08T10:36:50;98450.22;;;9.42;100.00
29903;BME280;30288;50.514;9.678;2024-03-08T10:38:57;98452.41;;;9.25;100.00
29903;BME280;30288;50.514;9.678;2024-03-08T10:41:05;98455.84;;;9.21;100.00
29903;BME280;30288;50.514;9.678;2024-03-08T10:43:23;98452.41;;;9.25;100.00
29903;BME280;30288;50.514;9.678;2024-03-08T10:45:36;98445.28;;;9.41;100.00
29903;BME280;30288;50.514;9.678;2024-03-08T10:47:47;98449.97;;;9.51;100.00
29903;BME280;30288;50.514;9.678;2024-03-08T10:50:18;98440.59;;;9.27;100.00
29903;BME280;30288;50.514;9.678;2024-03-08T10:52:26;98437.47;;;9.19;100.00
29903;BME280;30288;50.514;9.678;2024-03-08T10:54:34;98427.53;;;9.45;100.00
29903;BME280;30288;50.514;9.678;2024-03-08T10:56:46;98431.25;;;9.61;100.00
29903;BME280;30288;50.514;9.678;2024-03-08T10:58:56;98426.75;;;9.73;100.00
29903;BME280;30288;50.514;9.678;2024-03-08T11:01:04;98418.47;;;9.97;100.00
29903;BME280;30288;50.514;9.678;2024-03-08T11:03:46;98419.59;;;10.16;100.00
29903;BME280;30288;50.514;9.678;2024-03-08T11:05:53;98412.19;;;10.36;100.00